Time;durP1;ratioP1;P1;durP2;ratioP2;P2;SDS_P1;SDS_P2;PMS_P1;PMS_P2;Temp;Humidity;BMP_temperature;BMP_pressure;BME280_temperature;BME280_humidity;BME280_pressure;Samples;Min_cycle;Max_cycle;Signal;HPM_P1;HPM_P2
2022/04/07 00:01:52;;;;;;;17.25;2.50;;;17.90;99.90;;;;;;5049108;28;20051;-73
2022/04/07 00:04:20;;;;;;;16.42;2.60;;;17.90;99.90;;;;;;5069703;28;20472;-72
2022/04/07 00:06:48;;;;;;;19.27;3.03;;;18.00;99.90;;;;;;5065314;28;20021;-72
2022/04/07 00:09:15;;;;;;;19.60;3.00;;;18.00;99.90;;;;;;5051581;28;20151;-72
2022/04/07 00:11:42;;;;;;;24.05;3.00;;;18.10;99.90;;;;;;5054092;28;20029;-71
2022/04/07 00:14:10;;;;;;;26.13;4.13;;;18.10;99.90;;;;;;5067289;28;20050;-71
2022/04/07 00:16:38;;;;;;;19.38;3.38;;;18.10;99.90;;;;;;5072446;28;20025;-72
2022/04/07 00:19:05;;;;;;;18.63;2.33;;;18.10;99.90;;;;;;5057009;28;20032;-71
2022/04/07 00:21:36;;;;;;;17.52;2.25;;;17.80;99.90;;;;;;5055461;28;20611;-70
2022/04/07 00:24:03;;;;;;;22.85;2.92;;;17.70;99.90;;;;;;5073875;28;20033;-71
2022/04/07 00:26:31;;;;;;;13.80;2.28;;;17.70;99.90;;;;;;5056221;28;20105;-71
2022/04/07 00:28:59;;;;;;;18.10;1.88;;;17.50;99.90;;;;;;5056708;28;20105;-70
2022/04/07 00:31:26;;;;;;;15.57;2.40;;;17.60;99.90;;;;;;5073833;28;20054;-72
2022/04/07 00:33:54;;;;;;;24.08;3.55;;;17.70;99.90;;;;;;5056964;28;20048;-70
2022/04/07 00:36:21;;;;;;;19.08;3.83;;;17.80;99.90;;;;;;5073912;28;20031;-70
2022/04/07 00:38:48;;;;;;;26.52;4.97;;;17.90;99.90;;;;;;5074154;28;20098;-71
2022/04/07 00:41:15;;;;;;;30.10;4.10;;;17.90;99.90;;;;;;5073012;28;20076;-70
2022/04/07 00:46:15;;;;;;;17.75;3.35;;;18.00;99.90;;;;;;5068621;22;20049;-70
2022/04/07 00:48:43;;;;;;;28.73;3.83;;;18.10;99.90;;;;;;5079046;22;20057;-71
2022/04/07 00:51:10;;;;;;;20.17;3.88;;;18.10;99.90;;;;;;5073471;28;20078;-71
2022/04/07 00:53:38;;;;;;;26.73;4.53;;;18.20;99.90;;;;;;5054402;28;20509;-70
2022/04/07 00:56:10;;;;;;;26.27;3.80;;;18.20;99.90;;;;;;5055491;28;20070;-71
2022/04/07 00:58:37;;;;;;;27.30;3.08;;;18.10;99.90;;;;;;5055012;28;20389;-70
2022/04/07 01:01:05;;;;;;;24.15;2.95;;;18.10;99.90;;;;;;5089547;22;20068;-70
2022/04/07 01:03:32;;;;;;;24.13;3.63;;;18.00;99.90;;;;;;5073267;28;20101;-70
2022/04/07 01:05:59;;;;;;;16.23;2.17;;;18.00;99.90;;;;;;5071796;28;20488;-71
2022/04/07 01:08:27;;;;;;;17.73;2.92;;;17.70;99.90;;;;;;5081643;22;20051;-72
2022/04/07 01:10:54;;;;;;;15.73;2.13;;;17.50;99.90;;;;;;5073288;28;20021;-70
2022/04/07 01:13:22;;;;;;;16.30;3.53;;;17.50;99.90;;;;;;5071664;28;20484;-71
2022/04/07 01:15:49;;;;;;;17.42;2.92;;;17.50;99.90;;;;;;5074594;22;20132;-71
2022/04/07 01:18:17;;;;;;;18.88;3.28;;;17.50;99.90;;;;;;5053988;28;20539;-70
2022/04/07 01:20:44;;;;;;;25.27;3.40;;;17.60;99.90;;;;;;5051157;28;20528;-70
2022/04/07 01:23:12;;;;;;;21.90;3.13;;;17.60;99.90;;;;;;5052117;28;20021;-71
2022/04/07 01:25:40;;;;;;;30.55;4.32;;;17.70;99.90;;;;;;5051037;28;20052;-72
2022/04/07 01:28:08;;;;;;;23.88;3.60;;;17.70;99.90;;;;;;5049001;28;20028;-70
2022/04/07 01:30:35;;;;;;;26.23;4.00;;;17.60;99.90;;;;;;5049149;28;20025;-71
2022/04/07 01:33:03;;;;;;;17.77;4.25;;;17.70;99.90;;;;;;5049983;22;20049;-71
2022/04/07 01:35:31;;;;;;;21.42;3.17;;;17.50;99.90;;;;;;5048533;28;20040;-71
2022/04/07 01:37:59;;;;;;;16.95;2.78;;;17.50;99.90;;;;;;5028977;28;20072;-72
2022/04/07 01:40:32;;;;;;;19.98;2.95;;;17.50;99.90;;;;;;5031566;28;20081;-73
2022/04/07 01:43:01;;;;;;;13.38;2.45;;;17.50;99.90;;;;;;5030536;28;20051;-71
2022/04/07 01:45:31;;;;;;;18.45;3.97;;;17.60;99.90;;;;;;5019190;28;20037;-72
2022/04/07 01:48:00;;;;;;;15.98;2.28;;;17.60;99.90;;;;;;5031780;28;20037;-72
2022/04/07 01:50:29;;;;;;;13.05;1.75;;;17.60;99.90;;;;;;5044550;28;20096;-71
2022/04/07 01:52:57;;;;;;;16.83;2.72;;;17.50;99.90;;;;;;5051125;22;20076;-71
2022/04/07 01:55:30;;;;;;;17.80;2.53;;;17.50;99.90;;;;;;5025815;28;20072;-71
2022/04/07 01:57:58;;;;;;;18.02;2.33;;;17.60;99.90;;;;;;5029159;28;20029;-71
2022/04/07 02:00:26;;;;;;;15.57;2.67;;;17.60;99.90;;;;;;5028669;28;20083;-70
2022/04/07 02:02:53;;;;;;;23.17;2.75;;;17.60;99.90;;;;;;5026967;28;20500;-71
2022/04/07 02:05:20;;;;;;;13.13;3.22;;;17.60;99.90;;;;;;5022098;23;20052;-70
2022/04/07 02:07:48;;;;;;;17.00;3.53;;;17.60;99.90;;;;;;5051086;28;20033;-70
2022/04/07 02:10:15;;;;;;;20.85;2.88;;;17.70;99.90;;;;;;5031913;28;20029;-71
2022/04/07 02:12:43;;;;;;;13.20;2.17;;;17.70;99.90;;;;;;5040761;28;20036;-71
2022/04/07 02:15:12;;;;;;;15.48;2.38;;;17.80;99.90;;;;;;5031058;28;20556;-71
2022/04/07 02:17:40;;;;;;;20.98;3.65;;;17.80;99.90;;;;;;5034889;28;20080;-71
2022/04/07 02:20:09;;;;;;;17.52;3.45;;;17.80;99.90;;;;;;5034934;28;20029;-71
2022/04/07 02:22:37;;;;;;;17.52;2.47;;;17.80;99.90;;;;;;5053095;28;20044;-71
2022/04/07 02:25:05;;;;;;;23.52;2.35;;;17.90;99.90;;;;;;5035341;28;20120;-71
2022/04/07 02:27:37;;;;;;;18.80;2.95;;;17.90;99.90;;;;;;5034462;28;20033;-70
2022/04/07 02:30:10;;;;;;;21.15;3.13;;;17.90;99.90;;;;;;5034830;28;20032;-71
2022/04/07 02:32:37;;;;;;;13.88;2.80;;;17.80;99.90;;;;;;5051946;28;20428;-71
2022/04/07 02:35:05;;;;;;;13.73;2.25;;;17.70;99.90;;;;;;5053047;28;20037;-71
2022/04/07 02:37:32;;;;;;;12.07;1.85;;;17.70;99.90;;;;;;5052040;28;20029;-71
2022/04/07 02:40:00;;;;;;;14.63;2.15;;;17.70;99.90;;;;;;5035248;28;20067;-71
2022/04/07 02:42:27;;;;;;;17.45;2.50;;;17.80;99.90;;;;;;5025793;28;20048;-72
2022/04/07 02:44:54;;;;;;;19.20;2.60;;;17.80;99.90;;;;;;5043866;28;20029;-71
2022/04/07 02:47:21;;;;;;;28.20;2.92;;;17.80;99.90;;;;;;5046802;28;20124;-71
2022/04/07 02:49:49;;;;;;;16.05;2.88;;;17.90;99.90;;;;;;5050873;28;20423;-70
2022/04/07 02:52:16;;;;;;;18.00;3.25;;;17.90;99.90;;;;;;5055306;28;20158;-71
2022/04/07 02:54:43;;;;;;;14.75;2.92;;;17.80;99.90;;;;;;5056550;28;20029;-72
2022/04/07 02:57:10;;;;;;;21.35;2.65;;;17.80;99.90;;;;;;5025365;28;20028;-71
2022/04/07 02:59:38;;;;;;;21.30;2.72;;;17.80;99.90;;;;;;5036014;28;20036;-71
2022/04/07 03:02:05;;;;;;;23.05;3.65;;;17.90;99.90;;;;;;5037246;28;20032;-72
2022/04/07 03:04:33;;;;;;;14.80;2.80;;;18.00;99.90;;;;;;5038014;28;20041;-72
2022/04/07 03:07:00;;;;;;;15.07;2.00;;;18.10;99.90;;;;;;5036444;28;20025;-72
2022/04/07 03:09:27;;;;;;;14.30;2.38;;;18.10;99.90;;;;;;5037377;28;20057;-72
2022/04/07 03:11:55;;;;;;;16.48;3.03;;;18.10;99.90;;;;;;5037051;28;20029;-71
2022/04/07 03:14:22;;;;;;;16.85;2.60;;;18.00;99.90;;;;;;5037564;28;20028;-72
2022/04/07 03:16:49;;;;;;;18.55;3.58;;;18.10;99.90;;;;;;5023770;28;20030;-71
2022/04/07 03:19:17;;;;;;;20.60;3.25;;;18.20;99.90;;;;;;5018157;28;20579;-71
2022/04/07 03:21:44;;;;;;;28.58;3.75;;;18.30;99.90;;;;;;5048566;28;20021;-71
2022/04/07 03:24:12;;;;;;;23.92;4.05;;;18.40;99.90;;;;;;5037087;28;20067;-71
2022/04/07 03:26:39;;;;;;;28.67;3.33;;;18.40;99.90;;;;;;5036726;28;20041;-71
2022/04/07 03:29:07;;;;;;;22.88;4.38;;;18.40;99.90;;;;;;5079665;22;20396;-71
2022/04/07 03:31:34;;;;;;;22.73;3.13;;;18.50;99.90;;;;;;5054581;28;20033;-71
2022/04/07 03:34:02;;;;;;;25.85;3.90;;;18.60;99.90;;;;;;5052312;28;20469;-71
2022/04/07 03:36:30;;;;;;;25.83;3.25;;;18.60;99.90;;;;;;5063265;28;20504;-71
2022/04/07 03:38:57;;;;;;;24.50;3.72;;;18.70;99.90;;;;;;5071866;28;20497;-70
2022/04/07 03:41:24;;;;;;;26.30;3.80;;;18.70;99.90;;;;;;5073057;28;20111;-71
2022/04/07 03:43:51;;;;;;;24.10;4.00;;;18.70;99.90;;;;;;5091084;22;20097;-71
2022/04/07 03:46:21;;;;;;;23.02;3.55;;;18.70;99.90;;;;;;5045686;28;20048;-70
2022/04/07 03:48:52;;;;;;;22.05;3.20;;;18.70;99.90;;;;;;5037605;28;20112;-70
2022/04/07 03:51:20;;;;;;;22.42;4.13;;;18.70;99.90;;;;;;5051975;22;20044;-70
2022/04/07 03:53:47;;;;;;;30.48;4.22;;;18.70;99.90;;;;;;5034975;28;20079;-70
2022/04/07 03:56:14;;;;;;;22.25;3.17;;;18.70;99.90;;;;;;5052989;28;20064;-70
2022/04/07 03:58:42;;;;;;;24.30;2.95;;;18.60;99.90;;;;;;5089225;22;20072;-70
2022/04/07 04:01:09;;;;;;;23.63;4.00;;;18.60;99.90;;;;;;5068874;28;20028;-69
2022/04/07 04:03:36;;;;;;;25.92;4.15;;;18.70;99.90;;;;;;5071833;28;20012;-71
2022/04/07 04:06:04;;;;;;;25.33;3.58;;;18.70;99.90;;;;;;5053999;28;20481;-69
2022/04/07 04:08:31;;;;;;;20.13;2.75;;;18.70;99.90;;;;;;5083155;22;20394;-71
2022/04/07 04:10:59;;;;;;;23.50;3.10;;;18.70;99.90;;;;;;5072530;28;20053;-70
2022/04/07 04:13:28;;;;;;;27.83;3.85;;;18.70;99.90;;;;;;5069957;28;20037;-71
2022/04/07 04:15:56;;;;;;;18.80;2.85;;;18.70;99.90;;;;;;5074431;28;20388;-71
2022/04/07 04:21:52;;;;;;;21.30;3.33;;;18.70;99.90;;;;;;5073221;28;20030;-70
2022/04/07 04:24:21;;;;;;;23.25;3.25;;;18.70;99.90;;;;;;5089531;22;20083;-70
2022/04/07 04:26:49;;;;;;;20.67;3.58;;;18.70;99.90;;;;;;5074564;28;20030;-70
2022/04/07 04:29:16;;;;;;;28.88;3.63;;;18.70;99.90;;;;;;5062268;28;20564;-71
2022/04/07 04:31:45;;;;;;;24.77;2.95;;;18.70;99.90;;;;;;5070180;28;20493;-70
2022/04/07 04:34:12;;;;;;;20.42;3.58;;;18.70;99.90;;;;;;5067416;28;20130;-71
2022/04/07 04:36:43;;;;;;;30.55;4.30;;;18.60;99.90;;;;;;5069077;28;20074;-71
2022/04/07 04:39:11;;;;;;;24.90;4.88;;;18.60;99.90;;;;;;5049424;28;20044;-71
2022/04/07 04:41:39;;;;;;;17.67;2.40;;;18.60;99.90;;;;;;5051646;28;20074;-70
2022/04/07 04:44:06;;;;;;;22.35;3.85;;;18.60;99.90;;;;;;5066784;28;20044;-71
2022/04/07 04:46:34;;;;;;;22.98;4.00;;;18.60;99.90;;;;;;5060670;28;20088;-71
2022/04/07 04:49:02;;;;;;;17.95;3.20;;;18.50;99.90;;;;;;5065302;28;20411;-70
2022/04/07 04:51:29;;;;;;;33.08;4.53;;;18.50;99.90;;;;;;5049066;28;20079;-70
2022/04/07 04:53:57;;;;;;;26.65;3.70;;;18.50;99.90;;;;;;5051545;28;20112;-70
2022/04/07 04:56:27;;;;;;;22.13;3.00;;;18.40;99.90;;;;;;5065086;22;20370;-71
2022/04/07 04:58:57;;;;;;;20.48;3.38;;;18.40;99.90;;;;;;5056088;28;20025;-70
2022/04/07 05:01:24;;;;;;;24.23;3.83;;;18.50;99.90;;;;;;5049370;28;20913;-69
2022/04/07 05:03:52;;;;;;;20.05;3.65;;;18.40;99.90;;;;;;5048819;28;20104;-71
2022/04/07 05:06:19;;;;;;;18.83;2.85;;;18.40;99.90;;;;;;5051585;28;20120;-71
2022/04/07 05:08:47;;;;;;;22.50;3.92;;;18.40;99.90;;;;;;5051739;28;20095;-71
2022/04/07 05:11:14;;;;;;;21.58;4.85;;;18.30;99.90;;;;;;5049783;28;20025;-70
2022/04/07 05:13:42;;;;;;;34.58;5.65;;;18.30;99.90;;;;;;5051203;28;20025;-70
2022/04/07 05:16:15;;;;;;;29.15;3.90;;;18.20;99.90;;;;;;5033364;28;20029;-71
2022/04/07 05:18:48;;;;;;;15.02;3.35;;;18.20;99.90;;;;;;5041454;28;20112;-71
2022/04/07 05:21:17;;;;;;;24.40;4.50;;;18.20;99.90;;;;;;5046176;28;20028;-70
2022/04/07 05:23:44;;;;;;;22.45;5.15;;;18.20;99.90;;;;;;5047010;28;20032;-71
2022/04/07 05:26:15;;;;;;;21.63;3.35;;;18.10;99.90;;;;;;5049308;28;20025;-71
2022/04/07 05:28:43;;;;;;;23.95;4.30;;;18.10;99.90;;;;;;5029812;28;20029;-71
2022/04/07 05:31:12;;;;;;;19.98;3.40;;;18.10;99.90;;;;;;5030860;28;20489;-71
2022/04/07 05:33:40;;;;;;;19.83;3.75;;;18.10;99.90;;;;;;5016360;28;20065;-71
2022/04/07 05:36:08;;;;;;;21.95;3.05;;;18.00;99.90;;;;;;5046641;28;20055;-71
2022/04/07 05:38:36;;;;;;;21.02;3.47;;;18.00;99.90;;;;;;5025757;28;20028;-71
2022/04/07 05:41:04;;;;;;;24.45;4.45;;;18.00;99.90;;;;;;5033822;28;20026;-71
2022/04/07 05:43:32;;;;;;;22.02;4.03;;;18.10;99.90;;;;;;5043354;28;20044;-70
2022/04/07 05:46:01;;;;;;;25.60;3.95;;;18.10;99.90;;;;;;5048545;28;20029;-71
2022/04/07 05:48:29;;;;;;;34.33;4.88;;;18.10;99.90;;;;;;5034876;28;20112;-71
2022/04/07 05:51:01;;;;;;;31.63;5.45;;;18.10;99.90;;;;;;5026698;28;20123;-71
2022/04/07 05:53:28;;;;;;;28.33;3.67;;;18.10;99.90;;;;;;5031498;28;20063;-71
2022/04/07 05:56:00;;;;;;;22.35;4.13;;;18.20;99.90;;;;;;5032878;28;20037;-71
2022/04/07 05:58:29;;;;;;;21.80;4.07;;;18.20;99.90;;;;;;5031499;28;20053;-70
2022/04/07 06:00:56;;;;;;;40.35;7.15;;;18.20;99.90;;;;;;5046711;22;20042;-70
2022/04/07 06:03:24;;;;;;;27.17;4.53;;;18.20;99.90;;;;;;5073574;22;20083;-71
2022/04/07 06:05:55;;;;;;;26.05;3.97;;;18.30;99.90;;;;;;5054025;28;20389;-71
2022/04/07 06:08:24;;;;;;;33.45;4.55;;;18.30;99.90;;;;;;5073166;28;20031;-70
2022/04/07 06:10:51;;;;;;;29.42;4.05;;;18.30;99.90;;;;;;5037731;22;20076;-70
2022/04/07 06:13:19;;;;;;;27.98;4.13;;;18.30;99.90;;;;;;5032615;28;20035;-71
2022/04/07 06:15:47;;;;;;;27.85;4.30;;;18.40;99.90;;;;;;5030827;28;20481;-70
2022/04/07 06:18:16;;;;;;;27.83;3.95;;;18.40;99.90;;;;;;5024707;28;20033;-70
2022/04/07 06:20:46;;;;;;;24.70;3.85;;;18.40;99.90;;;;;;5031932;28;20116;-70
2022/04/07 06:23:14;;;;;;;27.63;4.22;;;18.40;99.90;;;;;;5067353;22;20408;-69
2022/04/07 06:25:43;;;;;;;34.72;4.90;;;18.30;99.90;;;;;;5053379;28;20089;-70
2022/04/07 06:28:12;;;;;;;28.83;4.30;;;18.30;99.90;;;;;;5050261;28;20049;-70
2022/04/07 06:30:40;;;;;;;23.45;4.10;;;18.40;99.90;;;;;;5054806;28;20045;-71
2022/04/07 06:33:07;;;;;;;21.75;4.45;;;18.40;99.90;;;;;;5054502;28;20033;-70
2022/04/07 06:35:35;;;;;;;21.05;4.03;;;18.50;99.90;;;;;;5053576;28;20190;-71
2022/04/07 06:38:02;;;;;;;22.92;3.00;;;18.40;99.90;;;;;;5055117;28;20041;-71
2022/04/07 06:40:32;;;;;;;24.20;3.30;;;18.30;99.90;;;;;;5047522;22;20053;-71
2022/04/07 06:43:00;;;;;;;17.10;3.10;;;18.30;99.90;;;;;;5053184;28;20039;-71
2022/04/07 06:45:29;;;;;;;22.67;3.28;;;18.30;99.90;;;;;;5050367;28;20037;-71
2022/04/07 06:47:57;;;;;;;18.75;2.55;;;18.20;99.90;;;;;;5054713;28;20036;-71
2022/04/07 06:50:26;;;;;;;27.45;5.13;;;18.30;99.90;;;;;;5050757;28;20082;-72
2022/04/07 06:52:55;;;;;;;27.33;4.18;;;18.20;99.90;;;;;;5044403;28;20033;-71
2022/04/07 06:55:24;;;;;;;25.98;4.28;;;18.30;99.90;;;;;;5042797;28;20033;-73
2022/04/07 06:57:55;;;;;;;29.92;3.67;;;18.40;99.90;;;;;;5032937;22;20506;-73
2022/04/07 07:00:29;;;;;;;27.48;3.92;;;18.40;99.90;;;;;;5032415;28;20559;-71
2022/04/07 07:03:00;;;;;;;22.77;4.53;;;18.40;99.90;;;;;;5032016;28;20052;-71
2022/04/07 07:05:30;;;;;;;20.13;4.05;;;18.40;99.90;;;;;;5029910;28;20498;-71
2022/04/07 07:08:10;;;;;;;22.67;4.00;;;18.40;99.90;;;;;;5032802;28;20065;-72
2022/04/07 07:10:38;;;;;;;25.55;3.88;;;18.40;99.90;;;;;;5029950;28;20033;-71
2022/04/07 07:13:06;;;;;;;24.17;3.63;;;18.40;99.90;;;;;;5030824;28;20041;-72
2022/04/07 07:15:34;;;;;;;21.10;4.25;;;18.40;99.90;;;;;;5032080;28;20156;-72
2022/04/07 07:18:01;;;;;;;26.88;3.50;;;18.40;99.90;;;;;;5036064;28;20026;-70
2022/04/07 07:20:29;;;;;;;28.38;3.95;;;18.60;99.90;;;;;;5027771;28;20114;-70
2022/04/07 07:22:58;;;;;;;28.13;4.28;;;18.60;99.90;;;;;;5041525;28;20597;-72
2022/04/07 07:25:25;;;;;;;20.08;3.85;;;18.50;99.90;;;;;;5029697;28;20048;-72
2022/04/07 07:27:53;;;;;;;19.00;3.25;;;18.50;99.90;;;;;;5038311;23;20032;-71
2022/04/07 07:30:20;;;;;;;23.33;4.43;;;18.50;99.90;;;;;;5095359;28;20024;-71
2022/04/07 07:32:51;;;;;;;21.02;3.33;;;18.50;99.90;;;;;;5091850;28;20123;-73
2022/04/07 07:35:20;;;;;;;23.08;3.53;;;18.50;99.90;;;;;;5089648;28;20035;-72
2022/04/07 07:38:16;;;;;;;20.25;3.33;;;18.60;99.90;;;;;;5091009;28;20024;-72
2022/04/07 07:40:44;;;;;;;22.85;3.10;;;18.60;99.90;;;;;;5000853;28;20050;-71
2022/04/07 07:43:12;;;;;;;16.98;3.38;;;18.70;99.90;;;;;;5012212;28;20117;-72
2022/04/07 07:45:39;;;;;;;15.35;3.63;;;18.80;99.90;;;;;;5012403;28;20065;-72
2022/04/07 07:48:08;;;;;;;15.88;3.28;;;18.80;99.90;;;;;;5001954;28;20555;-70
2022/04/07 07:50:38;;;;;;;23.33;3.08;;;19.10;99.90;;;;;;5006108;28;20045;-71
2022/04/07 07:53:08;;;;;;;20.02;3.47;;;19.20;99.90;;;;;;5044275;22;20137;-71
2022/04/07 07:55:37;;;;;;;17.65;3.08;;;19.20;99.90;;;;;;5049133;28;20032;-72
2022/04/07 07:58:06;;;;;;;21.52;2.63;;;19.20;99.90;;;;;;5051619;28;20036;-72
2022/04/07 08:00:33;;;;;;;18.35;3.58;;;19.20;99.90;;;;;;5038944;28;20111;-73
2022/04/07 08:03:01;;;;;;;20.73;3.28;;;19.20;99.90;;;;;;5049489;28;20084;-70
2022/04/07 08:05:28;;;;;;;24.55;3.65;;;19.20;99.90;;;;;;5053862;28;20032;-73
2022/04/07 08:07:55;;;;;;;20.90;2.85;;;19.20;99.90;;;;;;5053134;28;20377;-73
2022/04/07 08:10:23;;;;;;;16.73;3.20;;;19.30;99.90;;;;;;5016833;28;20026;-71
2022/04/07 08:12:50;;;;;;;18.13;3.35;;;19.30;99.90;;;;;;5037746;28;20488;-71
2022/04/07 08:15:18;;;;;;;17.48;2.50;;;19.40;99.90;;;;;;5042175;28;20029;-72
2022/04/07 08:17:45;;;;;;;22.67;3.70;;;19.40;99.90;;;;;;5021176;28;20621;-71
2022/04/07 08:20:13;;;;;;;21.33;4.22;;;19.40;99.90;;;;;;5053256;28;20021;-72
2022/04/07 08:22:40;;;;;;;21.92;4.20;;;19.40;99.90;;;;;;5048144;28;20072;-72
2022/04/07 08:25:08;;;;;;;22.75;4.32;;;19.40;99.90;;;;;;5041909;28;20021;-72
2022/04/07 08:27:36;;;;;;;21.98;3.25;;;19.30;99.90;;;;;;5030441;28;20124;-72
2022/04/07 08:30:04;;;;;;;25.48;3.70;;;19.30;99.90;;;;;;5059880;28;20028;-73
2022/04/07 08:32:35;;;;;;;21.30;3.63;;;19.40;99.90;;;;;;5042837;28;20037;-72
2022/04/07 08:35:03;;;;;;;16.80;2.20;;;19.40;99.90;;;;;;5030594;28;20028;-72
2022/04/07 08:37:31;;;;;;;21.77;3.55;;;19.40;99.90;;;;;;5050784;22;20056;-72
2022/04/07 08:40:05;;;;;;;20.83;3.15;;;19.50;99.90;;;;;;5032470;28;20048;-73
2022/04/07 08:42:34;;;;;;;20.48;4.30;;;19.40;99.90;;;;;;5023512;28;20091;-73
2022/04/07 08:45:02;;;;;;;15.75;3.00;;;19.50;99.90;;;;;;5061750;22;20156;-72
2022/04/07 08:47:33;;;;;;;19.30;3.97;;;19.50;99.90;;;;;;5036237;28;20051;-73
2022/04/07 08:50:04;;;;;;;18.15;3.55;;;19.50;99.90;;;;;;5035562;28;20028;-72
2022/04/07 08:52:32;;;;;;;20.73;3.55;;;19.50;99.90;;;;;;5032368;28;20336;-72
2022/04/07 08:55:00;;;;;;;15.63;3.47;;;19.60;99.90;;;;;;5041340;22;20042;-73
2022/04/07 08:57:31;;;;;;;15.60;3.08;;;19.60;99.90;;;;;;5014363;28;20096;-71
2022/04/07 08:59:58;;;;;;;17.08;3.60;;;19.60;99.90;;;;;;5086157;22;20060;-72
2022/04/07 09:02:26;;;;;;;15.55;2.50;;;19.60;99.90;;;;;;5072197;28;20040;-72
2022/04/07 09:05:01;;;;;;;19.48;3.53;;;19.60;99.90;;;;;;5069052;28;20099;-72
2022/04/07 09:07:33;;;;;;;17.73;2.67;;;19.70;99.90;;;;;;5073037;28;20033;-73
2022/04/07 09:10:02;;;;;;;22.05;4.53;;;19.80;99.90;;;;;;5063949;28;20186;-72
2022/04/07 09:12:30;;;;;;;20.65;3.53;;;19.70;99.90;;;;;;5071234;28;20029;-72
2022/04/07 09:14:59;;;;;;;19.40;2.67;;;19.60;99.90;;;;;;5071996;28;20743;-72
2022/04/07 09:17:29;;;;;;;19.92;3.13;;;19.60;99.90;;;;;;5043333;28;20025;-72
2022/04/07 09:19:56;;;;;;;17.38;3.60;;;19.60;99.90;;;;;;5078764;22;20566;-72
2022/04/07 09:22:31;;;;;;;23.17;4.05;;;19.50;99.90;;;;;;5072447;28;20510;-73
2022/04/07 09:25:08;;;;;;;19.63;3.55;;;19.50;99.90;;;;;;5042382;28;20024;-72
2022/04/07 09:27:41;;;;;;;22.98;3.67;;;19.60;99.90;;;;;;5054741;28;20525;-72
2022/04/07 09:30:11;;;;;;;20.67;3.45;;;19.60;99.90;;;;;;5055673;28;20090;-71
2022/04/07 09:32:47;;;;;;;18.38;4.35;;;19.50;99.90;;;;;;5064205;28;20048;-72
2022/04/07 09:35:14;;;;;;;17.33;3.83;;;19.60;99.90;;;;;;5020752;28;20041;-72
2022/04/07 09:37:43;;;;;;;22.85;3.42;;;19.60;99.90;;;;;;5053160;22;20061;-72
2022/04/07 09:40:16;;;;;;;19.92;3.70;;;19.60;99.90;;;;;;5035982;28;20476;-73
2022/04/07 09:42:43;;;;;;;25.35;4.30;;;19.60;99.90;;;;;;5033152;28;20443;-71
2022/04/07 09:45:13;;;;;;;20.70;2.85;;;19.60;99.90;;;;;;4999321;28;20049;-71
2022/04/07 09:47:45;;;;;;;20.27;4.20;;;19.60;99.90;;;;;;5033105;28;20032;-72
2022/04/07 09:50:31;;;;;;;25.73;4.10;;;19.60;99.90;;;;;;5016789;28;20025;-72
2022/04/07 09:53:03;;;;;;;20.10;3.33;;;19.60;99.90;;;;;;5030241;28;20096;-71
2022/04/07 09:55:41;;;;;;;17.73;3.13;;;19.60;99.90;;;;;;5029255;28;20073;-71
2022/04/07 09:58:12;;;;;;;16.55;3.45;;;19.60;99.90;;;;;;4995102;28;20018;-72
2022/04/07 10:00:40;;;;;;;16.50;2.78;;;19.60;99.90;;;;;;5008987;28;20547;-71
2022/04/07 10:03:11;;;;;;;16.00;3.45;;;19.70;99.90;;;;;;4994001;28;20100;-72
2022/04/07 10:05:39;;;;;;;21.30;2.92;;;19.60;99.90;;;;;;4995852;28;20565;-71
2022/04/07 10:10:37;;;;;;;18.48;3.30;;;19.70;99.90;;;;;;5090370;23;20707;-72
2022/04/07 10:13:05;;;;;;;14.98;2.80;;;19.80;99.90;;;;;;5045636;28;20033;-71
2022/04/07 10:15:36;;;;;;;19.85;2.78;;;19.90;99.90;;;;;;5073685;28;20157;-71
2022/04/07 10:18:12;;;;;;;20.73;3.03;;;19.90;99.90;;;;;;5059228;28;20036;-71
2022/04/07 10:20:45;;;;;;;15.18;2.97;;;19.90;99.90;;;;;;5066790;28;20746;-71
2022/04/07 10:23:51;;;;;;;12.77;2.30;;;19.90;99.90;;;;;;5072726;28;20028;-71
2022/04/07 10:26:20;;;;;;;18.23;2.25;;;19.90;99.90;;;;;;5015828;28;20061;-72
2022/04/07 10:28:57;;;;;;;22.27;2.95;;;19.90;99.90;;;;;;5073531;28;20016;-71
2022/04/07 10:31:25;;;;;;;19.15;2.88;;;19.90;99.90;;;;;;5062415;28;20090;-71
2022/04/07 10:34:04;;;;;;;14.00;2.55;;;19.90;99.90;;;;;;5078596;28;20058;-71
2022/04/07 10:36:40;;;;;;;15.00;2.30;;;19.90;99.90;;;;;;5076683;28;20342;-71
2022/04/07 10:39:14;;;;;;;20.27;3.97;;;19.90;99.90;;;;;;5075676;28;20033;-72
2022/04/07 10:41:41;;;;;;;12.18;2.38;;;19.80;99.90;;;;;;5060023;28;20020;-70
2022/04/07 10:44:20;;;;;;;18.70;2.85;;;19.90;99.90;;;;;;5057891;28;20533;-70
2022/04/07 10:46:47;;;;;;;18.67;3.97;;;20.00;99.90;;;;;;5072598;28;20077;-72
2022/04/07 10:49:25;;;;;;;19.15;3.15;;;20.00;99.90;;;;;;5078593;28;20465;-71
2022/04/07 10:51:58;;;;;;;15.57;2.90;;;20.00;99.90;;;;;;5055362;28;20032;-71
2022/04/07 10:54:30;;;;;;;23.15;3.08;;;20.00;99.90;;;;;;5055071;28;20133;-71
2022/04/07 10:56:59;;;;;;;19.55;3.45;;;20.00;99.90;;;;;;5045360;28;20040;-72
2022/04/07 10:59:36;;;;;;;14.30;2.45;;;20.00;99.90;;;;;;5059610;28;20108;-70
2022/04/07 11:02:12;;;;;;;19.38;2.03;;;20.10;99.90;;;;;;5040505;28;20029;-71
2022/04/07 11:05:10;;;;;;;17.02;3.10;;;20.00;99.90;;;;;;5052214;28;20033;-72
2022/04/07 11:07:58;;;;;;;20.30;2.58;;;20.00;99.90;;;;;;5059803;28;20029;-71
2022/04/07 11:10:45;;;;;;;14.65;2.50;;;20.00;99.90;;;;;;5080700;22;20079;-71
2022/04/07 11:13:13;;;;;;;17.75;2.95;;;20.00;99.90;;;;;;5065940;28;20109;-71
2022/04/07 11:16:00;;;;;;;14.63;2.40;;;20.00;99.90;;;;;;5077866;22;20052;-71
2022/04/07 11:18:49;;;;;;;18.75;2.47;;;20.00;99.90;;;;;;5062449;28;20047;-72
2022/04/07 11:21:16;;;;;;;14.98;2.30;;;20.00;99.90;;;;;;5059616;28;20055;-70
2022/04/07 11:23:53;;;;;;;16.02;3.67;;;20.00;99.90;;;;;;5092646;22;20053;-71
2022/04/07 11:26:25;;;;;;;24.60;3.17;;;20.00;99.90;;;;;;5056056;28;20025;-72
2022/04/07 11:29:12;;;;;;;15.15;2.63;;;20.10;99.90;;;;;;5071215;22;20049;-72
2022/04/07 11:31:49;;;;;;;18.77;3.42;;;20.00;99.90;;;;;;5055848;28;20022;-72
2022/04/07 11:34:58;;;;;;;14.05;2.88;;;20.00;99.90;;;;;;5057491;28;20044;-72
2022/04/07 11:37:26;;;;;;;16.80;3.00;;;20.00;99.90;;;;;;5075155;23;20049;-72
2022/04/07 11:39:54;;;;;;;16.83;3.50;;;20.00;99.90;;;;;;5061189;28;20030;-71
2022/04/07 11:42:22;;;;;;;18.73;2.13;;;20.00;99.90;;;;;;5063338;28;20401;-72
2022/04/07 11:44:58;;;;;;;15.65;1.95;;;20.00;99.90;;;;;;5057037;28;20025;-71
2022/04/07 11:47:31;;;;;;;11.10;1.67;;;19.90;99.90;;;;;;5046125;28;20017;-72
2022/04/07 11:49:58;;;;;;;14.60;3.08;;;19.90;99.90;;;;;;5043081;28;20017;-71
2022/04/07 11:52:28;;;;;;;21.02;2.88;;;19.90;99.90;;;;;;5109923;23;20052;-71
2022/04/07 11:54:57;;;;;;;15.27;2.40;;;19.90;99.90;;;;;;5062124;28;20036;-71
2022/04/07 11:57:28;;;;;;;18.10;2.22;;;20.00;99.90;;;;;;5076450;28;20024;-72
2022/04/07 11:59:59;;;;;;;19.17;2.55;;;20.00;99.90;;;;;;5065646;28;20047;-72
2022/04/07 12:02:27;;;;;;;16.65;2.90;;;20.00;99.90;;;;;;5088258;28;20064;-72
2022/04/07 12:05:03;;;;;;;15.73;2.50;;;19.90;99.90;;;;;;5090322;28;20009;-71
2022/04/07 12:07:31;;;;;;;15.80;2.63;;;19.90;99.90;;;;;;5085997;28;20090;-71
2022/04/07 12:10:10;;;;;;;16.60;2.75;;;19.90;99.90;;;;;;5080909;28;20115;-72
2022/04/07 12:12:39;;;;;;;18.30;2.60;;;20.00;99.90;;;;;;5058456;28;20408;-71
2022/04/07 12:15:08;;;;;;;18.70;2.95;;;20.00;99.90;;;;;;5079789;28;20035;-71
2022/04/07 12:17:35;;;;;;;15.15;2.33;;;20.10;99.90;;;;;;5059979;28;20040;-71
2022/04/07 12:20:04;;;;;;;16.52;2.22;;;20.00;99.90;;;;;;5078982;28;20036;-72
2022/04/07 12:22:32;;;;;;;19.88;2.55;;;20.00;99.90;;;;;;5077322;28;20027;-72
2022/04/07 12:25:01;;;;;;;9.63;2.08;;;20.00;99.90;;;;;;5082371;28;20031;-72
2022/04/07 12:27:33;;;;;;;17.77;2.80;;;20.10;99.90;;;;;;5103163;22;20045;-72
2022/04/07 12:30:01;;;;;;;13.57;2.42;;;20.00;99.90;;;;;;5085816;28;20017;-71
2022/04/07 12:32:45;;;;;;;18.55;2.63;;;20.00;99.90;;;;;;5087243;28;20072;-72
2022/04/07 12:35:12;;;;;;;14.77;1.87;;;19.90;99.90;;;;;;5076246;28;20029;-71
2022/04/07 12:37:45;;;;;;;12.82;2.28;;;19.90;99.90;;;;;;5058975;28;20046;-72
2022/04/07 12:40:15;;;;;;;18.85;2.80;;;19.90;99.90;;;;;;5069298;28;20044;-71
2022/04/07 12:42:53;;;;;;;12.57;2.22;;;19.90;99.90;;;;;;5088312;28;20050;-71
2022/04/07 12:45:23;;;;;;;14.50;1.80;;;19.80;99.90;;;;;;5082843;28;20024;-71
2022/04/07 12:48:22;;;;;;;17.60;2.75;;;19.80;99.90;;;;;;5075097;28;20551;-72
2022/04/07 12:50:50;;;;;;;11.05;1.92;;;19.80;99.90;;;;;;5069676;28;20039;-71
2022/04/07 12:53:31;;;;;;;16.38;2.30;;;19.80;99.90;;;;;;5069646;28;20048;-71
2022/04/07 12:56:03;;;;;;;14.80;2.03;;;19.80;99.90;;;;;;5084508;28;20032;-71
2022/04/07 12:58:34;;;;;;;14.80;2.47;;;19.90;99.90;;;;;;5078936;28;20024;-71